YOD weather

CFB Cold Lake
Cold Lake, Alberta, Canada

Public forecast

Using degrees Celsius for public forecast. Weather courtesy of forecast.io.

Current aviation weather report (METAR) for CFB Cold Lake

Retrieved 2019/10/16 23:00 UTC (36 minutes ago):

CYOD 162300Z 14007KT 15SM FEW200 BKN250 11/03 A2966 RMK CC2CI3 SLP063

Aviation forecast (TAF) for CFB Cold Lake

Retrieved 2019/10/16 21:35 UTC (2 hours ago):

TAF CYOD 162030Z 1621/1718 16005KT P6SM FEW020 FEW100 FM170000 13005KT P6SM SCT200 FM170300 13010KT P6SM SCT090 SCT200 FM171200 13005KT P6SM BKN090 BKN200 RMK NXT FCST BY 170000Z